TNN weather

Tainan Airport
Tainan City, Tainan City, Taiwan

Public forecast

Using degrees Celsius for public forecast. Weather courtesy of forecast.io.

Current aviation weather report (METAR) for Tainan Airport

Retrieved 2019/10/16 06:30 UTC (22 minutes ago):

RCNN 160630Z 28005KT 9999 FEW012 30/19 Q1014 NOSIG RMK A2995

Aviation forecast (TAF) for Tainan Airport

Retrieved 2019/10/16 06:21 UTC (31 minutes ago):

TAF RCNN 160500Z 1606/1706 26004KT 9999 FEW014 TX31/1606Z TN21/1620Z BECMG 1607/1610 33010KT BECMG 1612/1615 36004KT BECMG 1620/1623 6000 FEW012 BKN060 BECMG 1701/1704 33008KT 9999 FEW012 SCT060